createdAt,value
2022-11-03T00:00:16.300Z,24.78
2022-11-03T00:00:46.381Z,24.81
2022-11-03T00:01:16.574Z,24.79
2022-11-03T00:01:46.897Z,24.79
2022-11-03T00:02:16.815Z,24.79
2022-11-03T00:02:46.814Z,24.81
2022-11-03T00:03:16.801Z,24.79
2022-11-03T00:03:46.896Z,24.81
2022-11-03T00:04:16.994Z,24.78
2022-11-03T00:04:47.053Z,24.79
2022-11-03T00:05:17.131Z,24.79
2022-11-03T00:05:47.211Z,24.81
2022-11-03T00:06:17.292Z,24.79
2022-11-03T00:06:47.377Z,24.78
2022-11-03T00:07:17.451Z,24.77
2022-11-03T00:07:47.536Z,24.79
2022-11-03T00:08:17.623Z,24.77
2022-11-03T00:08:47.707Z,24.81
2022-11-03T00:09:17.781Z,24.79
2022-11-03T00:09:47.855Z,24.84
2022-11-03T00:10:17.941Z,24.78
2022-11-03T00:10:48.027Z,24.81
2022-11-03T00:11:18.107Z,24.77
2022-11-03T00:11:48.198Z,24.74
2022-11-03T00:12:18.275Z,24.75
2022-11-03T00:12:48.367Z,24.72
2022-11-03T00:13:18.455Z,24.67
2022-11-03T00:13:48.532Z,24.67
2022-11-03T00:14:18.609Z,24.68
2022-11-03T00:14:48.695Z,24.66
2022-11-03T00:15:18.778Z,24.64
2022-11-03T00:15:48.862Z,24.64
2022-11-03T00:16:18.942Z,24.67
2022-11-03T00:16:49.031Z,24.63
2022-11-03T00:17:19.107Z,24.63
2022-11-03T00:17:49.194Z,24.63
2022-11-03T00:18:19.274Z,24.61
2022-11-03T00:18:49.351Z,24.58
2022-11-03T00:19:19.456Z,24.57
2022-11-03T00:19:49.526Z,24.56
2022-11-03T00:20:19.604Z,24.61
2022-11-03T00:20:49.685Z,24.58
2022-11-03T00:21:19.778Z,24.58
2022-11-03T00:21:49.867Z,24.58
2022-11-03T00:22:19.948Z,24.61
2022-11-03T00:22:50.029Z,24.60
2022-11-03T00:23:20.107Z,24.61
2022-11-03T00:23:50.184Z,24.60
2022-11-03T00:24:20.214Z,24.61
2022-11-03T00:24:50.254Z,24.61
2022-11-03T00:25:20.289Z,24.61
2022-11-03T00:25:50.325Z,24.60
2022-11-03T00:26:20.389Z,24.60
2022-11-03T00:26:50.420Z,24.61
2022-11-03T00:27:20.464Z,24.60
2022-11-03T00:27:50.520Z,24.61
2022-11-03T00:28:20.565Z,24.56
2022-11-03T00:28:50.615Z,24.58
2022-11-03T00:29:20.663Z,24.58
2022-11-03T00:29:50.697Z,24.61
2022-11-03T00:30:20.734Z,24.56
2022-11-03T00:30:50.775Z,24.61
2022-11-03T00:31:20.822Z,24.60
2022-11-03T00:31:50.867Z,24.61
2022-11-03T00:32:20.909Z,24.64
2022-11-03T00:32:50.940Z,24.63
2022-11-03T00:33:20.972Z,24.66
2022-11-03T00:33:51.034Z,24.64
2022-11-03T00:34:21.142Z,24.66
2022-11-03T00:34:51.195Z,24.66
2022-11-03T00:35:21.272Z,24.63
2022-11-03T00:35:51.365Z,24.63
2022-11-03T00:36:21.458Z,24.66
2022-11-03T00:36:51.542Z,24.67
2022-11-03T00:37:21.617Z,24.67
2022-11-03T00:37:51.700Z,24.66
2022-11-03T00:38:21.785Z,24.66
2022-11-03T00:38:51.872Z,24.63
2022-11-03T00:39:21.952Z,24.66
2022-11-03T00:39:52.033Z,24.66
2022-11-03T00:40:22.116Z,24.64
2022-11-03T00:40:52.194Z,24.64
2022-11-03T00:41:22.273Z,24.67
2022-11-03T00:41:52.348Z,24.67
2022-11-03T00:42:22.434Z,24.66
2022-11-03T00:42:52.527Z,24.67
2022-11-03T00:43:22.605Z,24.67
2022-11-03T00:43:52.689Z,24.68
2022-11-03T00:44:22.771Z,24.71
2022-11-03T00:44:52.852Z,24.70
2022-11-03T00:45:22.940Z,24.67
2022-11-03T00:45:53.016Z,24.68
2022-11-03T00:46:23.101Z,24.68
2022-11-03T00:46:53.198Z,24.70
2022-11-03T00:47:24.330Z,24.70
2022-11-03T00:48:23.400Z,24.71
2022-11-03T00:48:53.477Z,24.70
2022-11-03T00:49:23.587Z,24.72
2022-11-03T00:49:53.651Z,24.68
2022-11-03T00:50:23.732Z,24.72
2022-11-03T00:50:53.813Z,24.71
2022-11-03T00:51:23.904Z,24.71
2022-11-03T00:51:53.990Z,24.74
2022-11-03T00:52:24.069Z,24.72
2022-11-03T00:52:54.154Z,24.74
2022-11-03T00:53:24.240Z,24.70
2022-11-03T00:53:54.331Z,24.71
2022-11-03T00:54:24.421Z,24.71
2022-11-03T00:54:55.267Z,24.72
2022-11-03T00:55:24.514Z,24.71
2022-11-03T00:55:54.596Z,24.72
2022-11-03T00:56:24.688Z,24.74
2022-11-03T00:56:54.768Z,24.72
2022-11-03T00:57:24.842Z,24.72
2022-11-03T00:57:54.928Z,24.70
2022-11-03T00:58:25.017Z,24.64
2022-11-03T00:58:55.101Z,24.63
2022-11-03T00:59:25.180Z,24.58
2022-11-03T00:59:55.263Z,24.58
2022-11-03T01:00:25.349Z,24.54
2022-11-03T01:00:55.469Z,24.51
2022-11-03T01:01:25.708Z,24.51
2022-11-03T01:01:55.765Z,24.50
2022-11-03T01:02:25.613Z,24.53
2022-11-03T01:02:55.604Z,24.50
2022-11-03T01:03:25.691Z,24.50
2022-11-03T01:03:55.775Z,24.49
2022-11-03T01:04:25.882Z,24.47
2022-11-03T01:04:55.931Z,24.49
2022-11-03T01:05:26.023Z,24.49
2022-11-03T01:05:56.107Z,24.47
2022-11-03T01:06:26.178Z,24.46
2022-11-03T01:06:56.261Z,24.47
2022-11-03T01:07:26.352Z,24.46
2022-11-03T01:07:56.585Z,24.44
2022-11-03T01:08:27.708Z,24.46
2022-11-03T01:08:56.655Z,24.42
2022-11-03T01:09:26.728Z,24.46
2022-11-03T01:09:56.826Z,24.42
2022-11-03T01:10:26.909Z,24.40
2022-11-03T01:10:56.997Z,24.43
2022-11-03T01:11:27.068Z,24.40
2022-11-03T01:11:57.163Z,24.39
2022-11-03T01:12:27.252Z,24.39
2022-11-03T01:12:57.335Z,24.39
2022-11-03T01:13:27.420Z,24.39
2022-11-03T01:13:57.490Z,24.39
2022-11-03T01:14:27.574Z,24.38
2022-11-03T01:14:57.657Z,24.40
2022-11-03T01:15:27.741Z,24.40
2022-11-03T01:15:57.825Z,24.40
2022-11-03T01:16:27.908Z,24.39
2022-11-03T01:16:57.995Z,24.42
2022-11-03T01:17:28.083Z,24.42
2022-11-03T01:17:58.166Z,24.44
2022-11-03T01:18:28.246Z,24.42
2022-11-03T01:18:58.332Z,24.44
2022-11-03T01:19:28.440Z,24.44
2022-11-03T01:19:58.504Z,24.47
2022-11-03T01:20:28.580Z,24.47
2022-11-03T01:20:58.661Z,24.46
2022-11-03T01:21:28.760Z,24.46
2022-11-03T01:21:58.849Z,24.49
2022-11-03T01:22:28.927Z,24.49
2022-11-03T01:22:59.007Z,24.50
2022-11-03T01:23:29.097Z,24.50
2022-11-03T01:23:59.167Z,24.51
2022-11-03T01:24:29.214Z,24.50
2022-11-03T01:24:59.253Z,24.53
2022-11-03T01:25:29.278Z,24.47
2022-11-03T01:25:59.323Z,24.49
2022-11-03T01:26:29.374Z,24.50
2022-11-03T01:26:59.410Z,24.51
2022-11-03T01:27:29.447Z,24.51
2022-11-03T01:27:59.563Z,24.54
2022-11-03T01:28:29.593Z,24.54
2022-11-03T01:28:59.637Z,24.56
2022-11-03T01:29:29.669Z,24.54
2022-11-03T01:29:59.715Z,24.56
2022-11-03T01:30:29.744Z,24.54
2022-11-03T01:30:59.798Z,24.58
2022-11-03T01:31:29.844Z,24.58
2022-11-03T01:31:59.895Z,24.58
2022-11-03T01:32:29.914Z,24.60
2022-11-03T01:32:59.962Z,24.57
2022-11-03T01:33:29.998Z,24.60
2022-11-03T01:34:00.080Z,24.57
2022-11-03T01:34:30.153Z,24.61
2022-11-03T01:35:00.253Z,24.54
2022-11-03T01:35:30.329Z,24.57
2022-11-03T01:36:00.423Z,24.57
2022-11-03T01:36:30.507Z,24.58
2022-11-03T01:37:00.585Z,24.60
2022-11-03T01:37:30.666Z,24.60
2022-11-03T01:38:00.755Z,24.57
2022-11-03T01:38:30.846Z,24.60
2022-11-03T01:39:00.926Z,24.57
2022-11-03T01:39:31.009Z,24.60
2022-11-03T01:40:01.097Z,24.61
2022-11-03T01:40:31.182Z,24.60
2022-11-03T01:41:01.262Z,24.61
2022-11-03T01:41:31.341Z,24.61
2022-11-03T01:42:01.432Z,24.64
2022-11-03T01:42:31.517Z,24.63
2022-11-03T01:43:01.600Z,24.64
2022-11-03T01:43:31.679Z,24.64
2022-11-03T01:44:01.759Z,24.63
2022-11-03T01:44:31.839Z,24.64
2022-11-03T01:45:01.923Z,24.64
2022-11-03T01:45:32.002Z,24.64
2022-11-03T01:46:02.078Z,24.60
2022-11-03T01:46:32.171Z,24.57
2022-11-03T01:47:02.258Z,24.56
2022-11-03T01:47:32.341Z,24.56
2022-11-03T01:48:02.424Z,24.56
2022-11-03T01:48:32.500Z,24.53
2022-11-03T01:49:02.583Z,24.51
2022-11-03T01:49:32.667Z,24.50
2022-11-03T01:50:02.775Z,24.49
2022-11-03T01:50:32.833Z,24.49
2022-11-03T01:51:02.936Z,24.47
2022-11-03T01:51:33.016Z,24.46
2022-11-03T01:52:03.101Z,24.44
2022-11-03T01:52:33.183Z,24.42
2022-11-03T01:53:03.604Z,24.43
2022-11-03T01:53:33.270Z,24.42
2022-11-03T01:54:03.334Z,24.42
2022-11-03T01:54:33.411Z,24.39
2022-11-03T01:55:03.489Z,24.42
2022-11-03T01:55:33.578Z,24.39
2022-11-03T01:56:03.670Z,24.42
2022-11-03T01:56:33.757Z,24.42
2022-11-03T01:57:03.837Z,24.40
2022-11-03T01:57:33.916Z,24.36
2022-11-03T01:58:03.999Z,24.38
2022-11-03T01:58:34.087Z,24.35
2022-11-03T01:59:04.168Z,24.35
2022-11-03T01:59:34.247Z,24.38
2022-11-03T02:00:04.417Z,24.35
2022-11-03T02:00:34.350Z,24.33
2022-11-03T02:01:04.493Z,24.36
2022-11-03T02:01:34.694Z,24.39
2022-11-03T02:02:04.781Z,24.36
2022-11-03T02:02:34.798Z,24.39
2022-11-03T02:03:05.134Z,24.38
2022-11-03T02:03:34.863Z,24.38
2022-11-03T02:04:04.945Z,24.38
2022-11-03T02:04:35.029Z,24.36
2022-11-03T02:05:05.112Z,24.39
2022-11-03T02:05:35.219Z,24.35
2022-11-03T02:06:05.280Z,24.35
2022-11-03T02:06:35.354Z,24.38
2022-11-03T02:07:05.440Z,24.38
2022-11-03T02:07:35.522Z,24.39
2022-11-03T02:08:05.670Z,24.39
2022-11-03T02:08:35.628Z,24.42
2022-11-03T02:09:05.705Z,24.40
2022-11-03T02:09:35.791Z,24.43
2022-11-03T02:10:05.876Z,24.42
2022-11-03T02:10:35.950Z,24.44
2022-11-03T02:11:06.039Z,24.44
2022-11-03T02:11:36.137Z,24.46
2022-11-03T02:12:06.228Z,24.46
2022-11-03T02:12:36.311Z,24.43
2022-11-03T02:13:06.760Z,24.47
2022-11-03T02:13:36.470Z,24.44
2022-11-03T02:14:06.557Z,24.49
2022-11-03T02:14:36.639Z,24.46
2022-11-03T02:15:06.719Z,24.47
2022-11-03T02:15:36.801Z,24.44
2022-11-03T02:16:06.886Z,24.46
2022-11-03T02:16:36.975Z,24.49
2022-11-03T02:17:07.052Z,24.49
2022-11-03T02:17:37.135Z,24.47
2022-11-03T02:18:07.222Z,24.49
2022-11-03T02:18:37.309Z,24.49
2022-11-03T02:19:07.388Z,24.51
2022-11-03T02:19:37.467Z,24.49
2022-11-03T02:20:07.552Z,24.49
2022-11-03T02:20:37.635Z,24.51
2022-11-03T02:21:07.740Z,24.50
2022-11-03T02:21:37.798Z,24.53
2022-11-03T02:22:07.886Z,24.51
2022-11-03T02:22:37.974Z,24.53
2022-11-03T02:23:08.489Z,24.51
2022-11-03T02:23:38.065Z,24.51
2022-11-03T02:24:08.107Z,24.54
2022-11-03T02:24:38.146Z,24.54
2022-11-03T02:25:08.189Z,24.53
2022-11-03T02:25:38.228Z,24.53
2022-11-03T02:26:08.279Z,24.56
2022-11-03T02:26:38.322Z,24.57
2022-11-03T02:27:08.362Z,24.56
2022-11-03T02:27:38.398Z,24.54
2022-11-03T02:28:08.450Z,24.56
2022-11-03T02:28:38.480Z,24.56
2022-11-03T02:29:08.513Z,24.57
2022-11-03T02:29:38.562Z,24.58
2022-11-03T02:30:08.592Z,24.57
2022-11-03T02:30:38.641Z,24.61
2022-11-03T02:31:08.696Z,24.58
2022-11-03T02:31:38.730Z,24.58
2022-11-03T02:32:08.770Z,24.58
2022-11-03T02:32:38.816Z,24.54
2022-11-03T02:33:09.222Z,24.51
2022-11-03T02:33:38.926Z,24.50
2022-11-03T02:34:09.001Z,24.47
2022-11-03T02:34:39.098Z,24.46
2022-11-03T02:35:09.185Z,24.46
2022-11-03T02:35:39.264Z,24.43
2022-11-03T02:36:09.343Z,24.42
2022-11-03T02:36:39.461Z,24.43
2022-11-03T02:37:09.517Z,24.42
2022-11-03T02:37:39.600Z,24.43
2022-11-03T02:38:09.676Z,24.40
2022-11-03T02:38:39.762Z,24.38
2022-11-03T02:39:09.845Z,24.38
2022-11-03T02:39:39.928Z,24.35
2022-11-03T02:40:10.010Z,24.33
2022-11-03T02:40:40.089Z,24.32
2022-11-03T02:41:10.163Z,24.27
2022-11-03T02:41:40.256Z,24.29
2022-11-03T02:42:10.338Z,24.29
2022-11-03T02:42:40.428Z,24.27
2022-11-03T02:43:10.507Z,24.29
2022-11-03T02:43:40.598Z,24.32
2022-11-03T02:44:10.684Z,24.27
2022-11-03T02:44:40.761Z,24.27
2022-11-03T02:45:13.332Z,24.26
2022-11-03T02:45:40.897Z,24.29
2022-11-03T02:46:10.984Z,24.24
2022-11-03T02:46:41.070Z,24.24
2022-11-03T02:47:11.150Z,24.29
2022-11-03T02:47:41.288Z,24.27
2022-11-03T02:48:11.232Z,24.29
2022-11-03T02:48:41.327Z,24.30
2022-11-03T02:49:11.413Z,24.29
2022-11-03T02:49:41.584Z,24.27
2022-11-03T02:50:11.545Z,24.26
2022-11-03T02:50:41.624Z,24.27
2022-11-03T02:51:11.715Z,24.24
2022-11-03T02:51:41.796Z,24.23
2022-11-03T02:52:11.910Z,24.26
2022-11-03T02:52:41.977Z,24.26
2022-11-03T02:53:12.059Z,24.26
2022-11-03T02:53:42.143Z,24.26
2022-11-03T02:54:12.218Z,24.24
2022-11-03T02:54:42.302Z,24.23
2022-11-03T02:55:12.389Z,24.23
2022-11-03T02:55:42.478Z,24.24
2022-11-03T02:56:12.560Z,24.22
2022-11-03T02:56:42.641Z,24.24
2022-11-03T02:57:12.725Z,24.26
2022-11-03T02:57:42.814Z,24.24
2022-11-03T02:58:12.895Z,24.27
2022-11-03T02:58:42.976Z,24.30
2022-11-03T02:59:13.052Z,24.26
2022-11-03T02:59:43.137Z,24.26
2022-11-03T03:00:13.227Z,24.29
2022-11-03T03:00:43.407Z,24.33
2022-11-03T03:01:13.564Z,24.35
2022-11-03T03:01:43.586Z,24.32
2022-11-03T03:02:13.584Z,24.33
2022-11-03T03:02:43.478Z,24.38
2022-11-03T03:03:13.552Z,24.35
2022-11-03T03:03:43.631Z,24.38
2022-11-03T03:04:13.715Z,24.35
2022-11-03T03:04:43.794Z,24.39
2022-11-03T03:05:13.870Z,24.38
2022-11-03T03:05:43.945Z,24.39
2022-11-03T03:06:14.025Z,24.38
2022-11-03T03:06:44.120Z,24.39
2022-11-03T03:07:14.234Z,24.42
2022-11-03T03:07:44.279Z,24.42
2022-11-03T03:08:14.361Z,24.42
2022-11-03T03:08:44.445Z,24.42
2022-11-03T03:09:14.526Z,24.40
2022-11-03T03:09:44.608Z,24.39
2022-11-03T03:10:14.687Z,24.40
2022-11-03T03:10:44.772Z,24.42
2022-11-03T03:11:14.852Z,24.43
2022-11-03T03:11:44.937Z,24.40
2022-11-03T03:12:15.018Z,24.42
2022-11-03T03:12:45.105Z,24.47
2022-11-03T03:13:15.189Z,24.47
2022-11-03T03:13:45.281Z,24.44
2022-11-03T03:14:15.357Z,24.47
2022-11-03T03:14:45.435Z,24.46
2022-11-03T03:15:15.520Z,24.49
2022-11-03T03:15:45.600Z,24.49
2022-11-03T03:16:15.684Z,24.47
2022-11-03T03:16:45.792Z,24.51
2022-11-03T03:17:15.860Z,24.50
2022-11-03T03:17:45.945Z,24.49
2022-11-03T03:18:16.020Z,24.47
2022-11-03T03:18:46.100Z,24.44
2022-11-03T03:19:16.188Z,24.46
2022-11-03T03:19:46.266Z,24.42
2022-11-03T03:20:16.356Z,24.40
2022-11-03T03:20:46.448Z,24.38
2022-11-03T03:21:16.522Z,24.33
2022-11-03T03:21:46.603Z,24.27
2022-11-03T03:22:16.710Z,24.30
2022-11-03T03:22:46.776Z,24.24
2022-11-03T03:23:17.434Z,24.27
2022-11-03T03:23:46.917Z,24.23
2022-11-03T03:24:16.926Z,24.22
2022-11-03T03:24:46.971Z,24.22
2022-11-03T03:25:17.001Z,24.17
2022-11-03T03:25:47.044Z,24.17
2022-11-03T03:26:17.086Z,24.19
2022-11-03T03:26:47.118Z,24.17
2022-11-03T03:27:17.171Z,24.17
2022-11-03T03:27:47.206Z,24.17
2022-11-03T03:28:17.243Z,24.16
2022-11-03T03:28:47.279Z,24.16
2022-11-03T03:29:17.317Z,24.17
2022-11-03T03:29:47.354Z,24.20
2022-11-03T03:30:17.393Z,24.17
2022-11-03T03:30:47.439Z,24.17
2022-11-03T03:31:17.486Z,24.17
2022-11-03T03:31:47.530Z,24.16
2022-11-03T03:32:17.581Z,24.16
2022-11-03T03:32:47.612Z,24.16
2022-11-03T03:33:17.744Z,24.15
2022-11-03T03:33:48.094Z,24.16
2022-11-03T03:34:34.075Z,24.16
2022-11-03T03:34:47.784Z,24.16
2022-11-03T03:35:17.882Z,24.17
2022-11-03T03:35:47.955Z,24.16
2022-11-03T03:36:18.032Z,24.17
2022-11-03T03:36:48.121Z,24.12
2022-11-03T03:37:18.204Z,24.12
2022-11-03T03:37:48.310Z,24.13
2022-11-03T03:38:18.368Z,24.15
2022-11-03T03:38:48.450Z,24.16
2022-11-03T03:39:18.534Z,24.16
2022-11-03T03:39:48.620Z,24.15
2022-11-03T03:40:18.701Z,24.16
2022-11-03T03:40:48.791Z,24.15
2022-11-03T03:41:18.875Z,24.15
2022-11-03T03:41:48.967Z,24.13
2022-11-03T03:42:19.044Z,24.15
2022-11-03T03:42:49.121Z,24.15
2022-11-03T03:43:19.210Z,24.15
2022-11-03T03:43:49.296Z,24.17
2022-11-03T03:44:19.380Z,24.16
2022-11-03T03:44:49.462Z,24.19
2022-11-03T03:45:19.542Z,24.17
2022-11-03T03:45:49.623Z,24.23
2022-11-03T03:46:19.709Z,24.20
2022-11-03T03:46:49.789Z,24.19
2022-11-03T03:47:19.865Z,24.20
2022-11-03T03:47:51.550Z,24.19
2022-11-03T03:48:20.032Z,24.17
2022-11-03T03:48:50.107Z,24.17
2022-11-03T03:49:20.180Z,24.16
2022-11-03T03:49:50.265Z,24.17
2022-11-03T03:50:20.344Z,24.20
2022-11-03T03:50:50.455Z,24.20
2022-11-03T03:51:20.520Z,24.23
2022-11-03T03:51:50.683Z,24.22
2022-11-03T03:52:20.633Z,24.23
2022-11-03T03:52:50.743Z,24.27
2022-11-03T03:53:20.790Z,24.27
2022-11-03T03:53:50.879Z,24.30
2022-11-03T03:54:20.966Z,24.32
2022-11-03T03:54:51.052Z,24.32
2022-11-03T03:55:21.194Z,24.27
2022-11-03T03:55:51.178Z,24.32
2022-11-03T03:56:21.254Z,24.32
2022-11-03T03:56:51.355Z,24.27
2022-11-03T03:57:21.440Z,24.24
2022-11-03T03:57:52.667Z,24.23
2022-11-03T03:58:21.597Z,24.22
2022-11-03T03:58:51.688Z,24.22
2022-11-03T03:59:21.780Z,24.19
2022-11-03T03:59:51.852Z,24.22
2022-11-03T04:00:21.931Z,24.20
2022-11-03T04:00:52.067Z,24.20
2022-11-03T04:01:22.159Z,24.20
2022-11-03T04:01:52.247Z,24.23
2022-11-03T04:02:22.241Z,24.19
2022-11-03T04:02:52.196Z,24.19
2022-11-03T04:03:22.289Z,24.17
2022-11-03T04:03:52.370Z,24.15
2022-11-03T04:04:22.453Z,24.13
2022-11-03T04:04:52.540Z,24.16
2022-11-03T04:05:22.526Z,24.16
2022-11-03T04:05:52.619Z,24.13
2022-11-03T04:06:22.692Z,24.16
2022-11-03T04:06:52.776Z,24.15
2022-11-03T04:07:22.866Z,24.15
2022-11-03T04:07:52.951Z,24.15
2022-11-03T04:08:23.054Z,24.15
2022-11-03T04:08:53.113Z,24.16
2022-11-03T04:09:23.188Z,24.16
2022-11-03T04:09:53.293Z,24.19
2022-11-03T04:10:23.370Z,24.20
2022-11-03T04:10:53.445Z,24.20
2022-11-03T04:11:23.520Z,24.20
2022-11-03T04:11:53.608Z,24.19
2022-11-03T04:12:23.698Z,24.15
2022-11-03T04:12:53.781Z,24.12
2022-11-03T04:13:23.844Z,24.12
2022-11-03T04:13:53.949Z,24.12
2022-11-03T04:14:24.019Z,24.12
2022-11-03T04:14:54.116Z,24.12
2022-11-03T04:15:24.175Z,24.11
2022-11-03T04:15:54.262Z,24.12
2022-11-03T04:16:24.340Z,24.09
2022-11-03T04:16:54.431Z,24.12
2022-11-03T04:17:24.503Z,24.15
2022-11-03T04:17:54.584Z,24.13
2022-11-03T04:18:24.665Z,24.09
2022-11-03T04:18:54.749Z,24.12
2022-11-03T04:19:24.840Z,24.12
2022-11-03T04:19:54.927Z,24.13
2022-11-03T04:20:24.999Z,24.12
2022-11-03T04:20:55.082Z,24.15
2022-11-03T04:21:25.162Z,24.12
2022-11-03T04:21:55.256Z,24.12
2022-11-03T04:22:25.272Z,24.11
2022-11-03T04:22:55.357Z,24.11
2022-11-03T04:23:25.451Z,24.12
2022-11-03T04:23:55.495Z,24.13
2022-11-03T04:24:25.523Z,24.12
2022-11-03T04:24:55.576Z,24.12
2022-11-03T04:25:25.606Z,24.12
2022-11-03T04:25:55.647Z,24.12
2022-11-03T04:26:25.695Z,24.15
2022-11-03T04:26:55.732Z,24.12
2022-11-03T04:27:25.770Z,24.15
2022-11-03T04:27:55.816Z,24.16
2022-11-03T04:28:25.856Z,24.15
2022-11-03T04:28:55.897Z,24.16
2022-11-03T04:29:25.924Z,24.15
2022-11-03T04:29:55.973Z,24.16
2022-11-03T04:30:26.020Z,24.17
2022-11-03T04:30:58.660Z,24.19
2022-11-03T04:31:26.165Z,24.17
2022-11-03T04:31:56.218Z,24.17
2022-11-03T04:32:26.255Z,24.16
2022-11-03T04:32:56.324Z,24.17
2022-11-03T04:33:26.371Z,24.19
2022-11-03T04:33:56.454Z,24.19
2022-11-03T04:34:26.516Z,24.20
2022-11-03T04:34:56.598Z,24.20
2022-11-03T04:35:26.676Z,24.23
2022-11-03T04:35:56.753Z,24.23
2022-11-03T04:36:26.850Z,24.23
2022-11-03T04:36:56.939Z,24.23
2022-11-03T04:37:27.023Z,24.22
2022-11-03T04:37:57.117Z,24.24
2022-11-03T04:38:27.170Z,24.23
2022-11-03T04:38:57.242Z,24.23
2022-11-03T04:39:27.228Z,24.26
2022-11-03T04:39:57.315Z,24.24
2022-11-03T04:40:27.404Z,24.23
2022-11-03T04:40:57.490Z,24.24
2022-11-03T04:41:27.520Z,24.24
2022-11-03T04:41:57.560Z,24.26
2022-11-03T04:42:27.640Z,24.24
2022-11-03T04:42:57.723Z,24.23
2022-11-03T04:43:27.809Z,24.26
2022-11-03T04:43:57.913Z,24.24
2022-11-03T04:44:27.985Z,24.27
2022-11-03T04:44:58.061Z,24.26
2022-11-03T04:45:28.140Z,24.24
2022-11-03T04:45:58.242Z,24.24
2022-11-03T04:46:28.334Z,24.26
2022-11-03T04:46:58.410Z,24.29
2022-11-03T04:47:28.486Z,24.29
2022-11-03T04:47:58.587Z,24.29
2022-11-03T04:48:28.650Z,24.29
2022-11-03T04:48:58.748Z,24.27
2022-11-03T04:49:28.814Z,24.30
2022-11-03T04:49:58.898Z,24.30
2022-11-03T04:50:28.995Z,24.32
2022-11-03T04:50:59.086Z,24.32
2022-11-03T04:51:29.169Z,24.35
2022-11-03T04:51:59.252Z,24.32
2022-11-03T04:52:29.332Z,24.32
2022-11-03T04:52:59.416Z,24.27
2022-11-03T04:53:29.494Z,24.27
2022-11-03T04:53:59.601Z,24.27
2022-11-03T04:54:29.657Z,24.27
2022-11-03T04:54:59.744Z,24.27
2022-11-03T04:55:29.830Z,24.26
2022-11-03T04:56:04.395Z,24.27
2022-11-03T04:56:29.992Z,24.26
2022-11-03T04:57:00.082Z,24.26
2022-11-03T04:57:30.167Z,24.26
2022-11-03T04:58:00.242Z,24.27
2022-11-03T04:58:30.323Z,24.26
2022-11-03T04:59:00.406Z,24.27
2022-11-03T04:59:30.487Z,24.30
2022-11-03T05:00:00.569Z,24.29
2022-11-03T05:00:30.650Z,24.29
2022-11-03T05:01:00.844Z,24.32
2022-11-03T05:01:30.988Z,24.32
2022-11-03T05:02:01.070Z,24.33
2022-11-03T05:02:30.895Z,24.36
2022-11-03T05:03:00.967Z,24.35
2022-11-03T05:03:31.055Z,24.36
2022-11-03T05:04:01.138Z,24.36
2022-11-03T05:04:31.218Z,24.39
2022-11-03T05:05:01.295Z,24.39
2022-11-03T05:05:31.372Z,24.42
2022-11-03T05:06:01.455Z,24.43
2022-11-03T05:06:31.544Z,24.44
2022-11-03T05:07:01.624Z,24.42
2022-11-03T05:07:31.713Z,24.43
2022-11-03T05:08:01.820Z,24.42
2022-11-03T05:08:31.899Z,24.44
2022-11-03T05:09:02.017Z,24.44
2022-11-03T05:09:32.059Z,24.46
2022-11-03T05:10:02.134Z,24.46
2022-11-03T05:10:32.217Z,24.49
2022-11-03T05:11:02.302Z,24.49
2022-11-03T05:11:32.391Z,24.49
2022-11-03T05:12:02.480Z,24.50
2022-11-03T05:12:32.566Z,24.50
2022-11-03T05:13:02.654Z,24.53
2022-11-03T05:13:32.731Z,24.51
2022-11-03T05:14:02.816Z,24.53
2022-11-03T05:14:32.896Z,24.50
2022-11-03T05:15:02.985Z,24.51
2022-11-03T05:15:33.081Z,24.51
2022-11-03T05:16:03.151Z,24.53
2022-11-03T05:16:33.242Z,24.50
2022-11-03T05:17:03.328Z,24.51
2022-11-03T05:17:33.414Z,24.51
2022-11-03T05:18:03.494Z,24.51
2022-11-03T05:18:33.578Z,24.51
2022-11-03T05:19:03.664Z,24.51
2022-11-03T05:19:33.750Z,24.53
2022-11-03T05:20:03.866Z,24.57
2022-11-03T05:20:36.193Z,24.56
2022-11-03T05:21:03.918Z,24.58
2022-11-03T05:21:34.010Z,24.54
2022-11-03T05:22:04.101Z,24.56
2022-11-03T05:22:34.183Z,24.61
2022-11-03T05:23:04.681Z,24.63
2022-11-03T05:23:34.280Z,24.61
2022-11-03T05:24:04.409Z,24.60
2022-11-03T05:24:34.371Z,24.58
2022-11-03T05:25:04.402Z,24.57
2022-11-03T05:25:34.427Z,24.57
2022-11-03T05:26:04.469Z,24.54
2022-11-03T05:26:34.632Z,24.57
2022-11-03T05:27:04.564Z,24.57
2022-11-03T05:27:34.613Z,24.60
2022-11-03T05:28:05.133Z,24.56
2022-11-03T05:28:34.743Z,24.57
2022-11-03T05:29:04.775Z,24.57
2022-11-03T05:29:34.823Z,24.58
2022-11-03T05:30:04.864Z,24.61
2022-11-03T05:30:34.897Z,24.58
2022-11-03T05:31:04.938Z,24.61
2022-11-03T05:31:34.989Z,24.61
2022-11-03T05:32:05.035Z,24.64
2022-11-03T05:32:35.064Z,24.64
2022-11-03T05:33:05.103Z,24.63
2022-11-03T05:33:35.142Z,24.64
2022-11-03T05:34:05.216Z,24.64
2022-11-03T05:34:35.300Z,24.64
2022-11-03T05:35:05.388Z,24.68
2022-11-03T05:35:35.468Z,24.70
2022-11-03T05:36:05.540Z,24.74
2022-11-03T05:36:35.637Z,24.72
2022-11-03T05:37:05.721Z,24.68
2022-11-03T05:37:35.812Z,24.68
2022-11-03T05:38:06.208Z,24.70
2022-11-03T05:38:35.952Z,24.68
2022-11-03T05:39:06.031Z,24.64
2022-11-03T05:39:36.124Z,24.68
2022-11-03T05:40:06.227Z,24.67
2022-11-03T05:40:36.283Z,24.66
2022-11-03T05:41:06.368Z,24.61
2022-11-03T05:41:36.552Z,24.63
2022-11-03T05:42:06.529Z,24.60
2022-11-03T05:42:36.616Z,24.57
2022-11-03T05:43:11.996Z,24.57
2022-11-03T05:43:36.779Z,24.57
2022-11-03T05:44:06.860Z,24.57
2022-11-03T05:44:37.024Z,24.54
2022-11-03T05:45:07.016Z,24.57
2022-11-03T05:45:37.104Z,24.54
2022-11-03T05:46:37.258Z,24.54
2022-11-03T05:47:08.374Z,24.51
2022-11-03T05:47:37.342Z,24.51
2022-11-03T05:48:07.771Z,24.50
2022-11-03T05:48:37.481Z,24.51
2022-11-03T05:49:07.564Z,24.49
2022-11-03T05:49:37.653Z,24.50
2022-11-03T05:50:07.737Z,24.50
2022-11-03T05:50:37.820Z,24.49
2022-11-03T05:51:07.898Z,24.47
2022-11-03T05:51:37.993Z,24.44
2022-11-03T05:52:08.077Z,24.47
2022-11-03T05:52:38.164Z,24.44
2022-11-03T05:53:08.244Z,24.44
2022-11-03T05:53:38.324Z,24.39
2022-11-03T05:54:08.405Z,24.40
2022-11-03T05:54:38.514Z,24.36
2022-11-03T05:55:08.492Z,24.36
2022-11-03T05:55:38.601Z,24.33
2022-11-03T05:56:08.669Z,24.35
2022-11-03T05:56:38.763Z,24.30
2022-11-03T05:57:08.860Z,24.29
2022-11-03T05:57:38.958Z,24.27
2022-11-03T05:58:09.398Z,24.26
2022-11-03T05:58:39.045Z,24.24
2022-11-03T05:59:09.128Z,24.22
2022-11-03T05:59:39.204Z,24.24
2022-11-03T06:00:09.283Z,24.24
2022-11-03T06:00:42.943Z,24.24
2022-11-03T06:01:09.436Z,24.26
2022-11-03T06:01:39.645Z,24.26
2022-11-03T06:02:09.731Z,24.24
2022-11-03T06:02:39.695Z,24.24
2022-11-03T06:03:09.675Z,24.27
2022-11-03T06:03:39.759Z,24.26
2022-11-03T06:04:09.838Z,24.27
2022-11-03T06:04:39.918Z,24.27
2022-11-03T06:05:10.006Z,24.30
2022-11-03T06:05:40.124Z,24.33
2022-11-03T06:06:10.088Z,24.32
2022-11-03T06:06:40.210Z,24.35
2022-11-03T06:07:10.187Z,24.33
2022-11-03T06:07:40.281Z,24.30
2022-11-03T06:08:10.692Z,24.27
2022-11-03T06:08:43.229Z,24.30
2022-11-03T06:09:10.486Z,24.29
2022-11-03T06:09:40.573Z,24.30
2022-11-03T06:10:10.653Z,24.29
2022-11-03T06:10:40.764Z,24.30
2022-11-03T06:11:10.829Z,24.27
2022-11-03T06:11:40.922Z,24.24
2022-11-03T06:12:11.006Z,24.27
2022-11-03T06:12:41.093Z,24.26
2022-11-03T06:13:11.171Z,24.24
2022-11-03T06:13:41.272Z,24.27
2022-11-03T06:14:11.259Z,24.24
2022-11-03T06:14:41.354Z,24.24
2022-11-03T06:15:11.438Z,24.23
2022-11-03T06:15:41.523Z,24.24
2022-11-03T06:16:11.601Z,24.26
2022-11-03T06:16:41.740Z,24.23
2022-11-03T06:17:11.721Z,24.23
2022-11-03T06:17:41.804Z,24.26
2022-11-03T06:18:11.883Z,24.23
2022-11-03T06:18:41.961Z,24.26
2022-11-03T06:19:12.044Z,24.29
2022-11-03T06:19:42.137Z,24.29
2022-11-03T06:20:12.215Z,24.27
2022-11-03T06:20:42.283Z,24.30
2022-11-03T06:21:12.375Z,24.27
2022-11-03T06:21:44.646Z,24.26
2022-11-03T06:22:12.558Z,24.26
2022-11-03T06:22:42.637Z,24.29
2022-11-03T06:23:12.719Z,24.27
2022-11-03T06:23:42.806Z,24.33
2022-11-03T06:24:12.884Z,24.36
2022-11-03T06:24:42.960Z,24.36
2022-11-03T06:25:13.040Z,24.38
2022-11-03T06:25:43.145Z,24.42
2022-11-03T06:26:13.211Z,24.36
2022-11-03T06:26:43.304Z,24.38
2022-11-03T06:27:13.383Z,24.40
2022-11-03T06:27:43.462Z,24.40
2022-11-03T06:28:13.542Z,24.39